createdAt,value
2023-12-22T00:00:10.705Z,8.30
2023-12-22T00:01:10.808Z,8.29
2023-12-22T00:02:10.671Z,8.33
2023-12-22T00:03:10.687Z,8.36
2023-12-22T00:04:10.649Z,8.37
2023-12-22T00:05:10.628Z,8.33
2023-12-22T00:06:10.701Z,8.38
2023-12-22T00:07:10.615Z,8.37
2023-12-22T00:08:10.647Z,8.36
2023-12-22T00:09:10.596Z,8.33
2023-12-22T00:10:10.693Z,8.29
2023-12-22T00:11:10.567Z,8.30
2023-12-22T00:12:10.590Z,8.33
2023-12-22T00:13:10.557Z,8.36
2023-12-22T00:14:10.665Z,8.36
2023-12-22T00:15:10.543Z,8.41
2023-12-22T00:16:10.536Z,8.45
2023-12-22T00:17:10.545Z,8.50
2023-12-22T00:18:10.568Z,8.43
2023-12-22T00:19:10.613Z,8.44
2023-12-22T00:20:10.650Z,8.43
2023-12-22T00:21:10.530Z,8.45
2023-12-22T00:22:10.552Z,8.47
2023-12-22T00:23:10.537Z,8.47
2023-12-22T00:24:10.434Z,8.47
2023-12-22T00:25:10.422Z,8.48
2023-12-22T00:26:10.422Z,8.52
2023-12-22T00:27:10.430Z,8.48
2023-12-22T00:28:10.425Z,8.53
2023-12-22T00:29:10.387Z,8.55
2023-12-22T00:30:10.386Z,8.62
2023-12-22T00:31:10.359Z,8.61
2023-12-22T00:32:10.351Z,8.61
2023-12-22T00:33:10.445Z,8.61
2023-12-22T00:34:10.342Z,8.59
2023-12-22T00:35:10.321Z,8.61
2023-12-22T00:36:10.324Z,8.59
2023-12-22T00:37:10.300Z,8.56
2023-12-22T00:38:10.346Z,8.58
2023-12-22T00:39:10.286Z,8.61
2023-12-22T00:40:10.289Z,8.59
2023-12-22T00:41:10.264Z,8.63
2023-12-22T00:42:10.258Z,8.74
2023-12-22T00:43:10.233Z,8.74
2023-12-22T00:44:10.226Z,8.73
2023-12-22T00:45:10.222Z,8.76
2023-12-22T00:46:10.212Z,8.76
2023-12-22T00:47:10.196Z,8.77
2023-12-22T00:48:10.278Z,8.76
2023-12-22T00:49:10.277Z,8.74
2023-12-22T00:50:10.275Z,8.70
2023-12-22T00:51:10.150Z,8.71
2023-12-22T00:52:10.147Z,8.66
2023-12-22T00:53:10.130Z,8.70
2023-12-22T00:54:10.130Z,8.68
2023-12-22T00:55:10.132Z,8.66
2023-12-22T00:56:10.113Z,8.59
2023-12-22T00:57:10.540Z,8.50
2023-12-22T00:58:10.084Z,8.40
2023-12-22T00:59:12.078Z,8.30
2023-12-22T01:00:10.066Z,8.25
2023-12-22T01:01:10.083Z,8.19
2023-12-22T01:02:10.081Z,8.11
2023-12-22T01:03:10.073Z,8.05
2023-12-22T01:04:10.071Z,8.01
2023-12-22T01:05:10.186Z,7.95
2023-12-22T01:06:10.105Z,7.92
2023-12-22T01:07:09.980Z,7.85
2023-12-22T01:08:10.028Z,7.79
2023-12-22T01:09:09.963Z,7.79
2023-12-22T01:10:10.335Z,7.74
2023-12-22T01:11:09.941Z,7.71
2023-12-22T01:12:09.975Z,7.67
2023-12-22T01:13:09.927Z,7.61
2023-12-22T01:14:09.911Z,7.61
2023-12-22T01:15:09.896Z,7.55
2023-12-22T01:16:09.884Z,7.55
2023-12-22T01:17:09.870Z,7.57
2023-12-22T01:18:09.989Z,7.57
2023-12-22T01:19:10.043Z,7.57
2023-12-22T01:20:09.881Z,7.57
2023-12-22T01:21:09.839Z,7.58
2023-12-22T01:22:10.002Z,7.58
2023-12-22T01:23:09.813Z,7.64
2023-12-22T01:24:09.814Z,7.77
2023-12-22T01:25:09.799Z,7.83
2023-12-22T01:26:09.834Z,7.87
2023-12-22T01:27:09.783Z,7.83
2023-12-22T01:28:09.781Z,7.83
2023-12-22T01:29:09.752Z,7.87
2023-12-22T01:30:09.760Z,7.92
2023-12-22T01:31:09.729Z,7.90
2023-12-22T01:32:09.734Z,7.90
2023-12-22T01:33:09.924Z,7.92
2023-12-22T01:34:09.774Z,7.90
2023-12-22T01:35:09.730Z,7.92
2023-12-22T01:36:09.716Z,8.02
2023-12-22T01:37:09.662Z,8.04
2023-12-22T01:38:09.698Z,8.04
2023-12-22T01:39:10.383Z,8.00
2023-12-22T01:40:09.635Z,8.05
2023-12-22T01:41:09.629Z,8.04
2023-12-22T01:42:09.617Z,8.01
2023-12-22T01:43:09.610Z,8.00
2023-12-22T01:44:09.613Z,7.98
2023-12-22T01:45:09.696Z,8.04
2023-12-22T01:46:09.582Z,8.04
2023-12-22T01:47:09.558Z,8.05
2023-12-22T01:48:09.601Z,8.05
2023-12-22T01:49:09.770Z,8.11
2023-12-22T01:50:09.580Z,8.11
2023-12-22T01:51:09.736Z,8.07
2023-12-22T01:52:09.520Z,8.07
2023-12-22T01:53:09.489Z,8.10
2023-12-22T01:54:09.507Z,8.12
2023-12-22T01:55:09.686Z,8.12
2023-12-22T01:56:09.479Z,8.12
2023-12-22T01:57:09.455Z,8.12
2023-12-22T01:58:09.449Z,8.05
2023-12-22T01:59:09.445Z,8.04
2023-12-22T02:00:09.469Z,8.05
2023-12-22T02:01:09.472Z,7.98
2023-12-22T02:02:09.432Z,8.01
2023-12-22T02:03:09.451Z,8.07
2023-12-22T02:04:09.390Z,8.08
2023-12-22T02:05:09.365Z,8.11
2023-12-22T02:06:09.743Z,8.12
2023-12-22T02:07:09.363Z,8.16
2023-12-22T02:08:09.402Z,8.18
2023-12-22T02:09:09.343Z,8.18
2023-12-22T02:10:09.765Z,8.19
2023-12-22T02:11:09.307Z,8.23
2023-12-22T02:12:09.315Z,8.23
2023-12-22T02:13:09.303Z,8.28
2023-12-22T02:14:09.294Z,8.30
2023-12-22T02:15:09.272Z,8.29
2023-12-22T02:16:09.265Z,8.29
2023-12-22T02:17:09.252Z,8.26
2023-12-22T02:18:09.252Z,8.26
2023-12-22T02:19:09.263Z,8.29
2023-12-22T02:20:09.246Z,8.26
2023-12-22T02:21:09.211Z,8.22
2023-12-22T02:22:10.142Z,8.23
2023-12-22T02:23:09.195Z,8.28
2023-12-22T02:24:09.180Z,8.26
2023-12-22T02:25:09.158Z,8.23
2023-12-22T02:26:09.151Z,8.30
2023-12-22T02:27:09.140Z,8.28
2023-12-22T02:28:09.198Z,8.28
2023-12-22T02:29:09.112Z,8.15
2023-12-22T02:30:09.109Z,8.02
2023-12-22T02:31:09.105Z,7.97
2023-12-22T02:32:09.095Z,7.89
2023-12-22T02:33:09.108Z,7.80
2023-12-22T02:34:09.109Z,7.72
2023-12-22T02:35:09.237Z,7.68
2023-12-22T02:36:09.435Z,7.63
2023-12-22T02:37:09.033Z,7.63
2023-12-22T02:38:09.080Z,7.63
2023-12-22T02:39:09.027Z,7.57
2023-12-22T02:40:08.998Z,7.52
2023-12-22T02:41:09.049Z,7.49
2023-12-22T02:42:08.987Z,7.45
2023-12-22T02:43:09.000Z,7.40
2023-12-22T02:44:08.976Z,7.43
2023-12-22T02:45:08.950Z,7.49
2023-12-22T02:46:08.936Z,7.55
2023-12-22T02:47:08.990Z,7.57
2023-12-22T02:48:09.067Z,7.58
2023-12-22T02:49:08.996Z,7.61
2023-12-22T02:50:09.001Z,7.58
2023-12-22T02:51:08.889Z,7.68
2023-12-22T02:52:08.880Z,7.74
2023-12-22T02:53:08.855Z,7.72
2023-12-22T02:54:08.846Z,7.72
2023-12-22T02:55:08.855Z,7.64
2023-12-22T02:56:08.838Z,7.68
2023-12-22T02:57:08.812Z,7.69
2023-12-22T02:58:08.869Z,7.64
2023-12-22T02:59:09.101Z,7.58
2023-12-22T03:00:08.876Z,7.57
2023-12-22T03:01:08.827Z,7.55
2023-12-22T03:02:08.772Z,7.50
2023-12-22T03:03:08.775Z,7.48
2023-12-22T03:04:08.785Z,7.45
2023-12-22T03:05:08.880Z,7.40
2023-12-22T03:06:08.803Z,7.35
2023-12-22T03:07:08.722Z,7.37
2023-12-22T03:08:08.766Z,7.37
2023-12-22T03:09:08.705Z,7.45
2023-12-22T03:10:08.678Z,7.49
2023-12-22T03:11:08.695Z,7.46
2023-12-22T03:12:08.655Z,7.40
2023-12-22T03:13:08.668Z,7.37
2023-12-22T03:14:09.473Z,7.34
2023-12-22T03:15:08.636Z,7.30
2023-12-22T03:16:08.637Z,7.30
2023-12-22T03:17:08.695Z,7.23
2023-12-22T03:18:08.728Z,7.24
2023-12-22T03:19:08.757Z,7.21
2023-12-22T03:20:08.621Z,7.17
2023-12-22T03:21:08.644Z,7.17
2023-12-22T03:22:08.573Z,7.15
2023-12-22T03:23:08.557Z,7.13
2023-12-22T03:24:08.558Z,7.21
2023-12-22T03:25:08.551Z,7.16
2023-12-22T03:26:08.525Z,7.16
2023-12-22T03:27:08.517Z,7.13
2023-12-22T03:28:08.517Z,7.10
2023-12-22T03:29:08.505Z,7.10
2023-12-22T03:30:08.532Z,7.07
2023-12-22T03:31:08.474Z,7.09
2023-12-22T03:32:08.463Z,7.10
2023-12-22T03:33:08.642Z,7.15
2023-12-22T03:34:08.434Z,7.15
2023-12-22T03:35:08.643Z,7.13
2023-12-22T03:36:08.433Z,7.15
2023-12-22T03:37:08.417Z,7.16
2023-12-22T03:38:08.425Z,7.20
2023-12-22T03:39:08.386Z,7.21
2023-12-22T03:40:08.395Z,7.20
2023-12-22T03:41:08.470Z,7.25
2023-12-22T03:42:08.344Z,7.31
2023-12-22T03:43:08.362Z,7.25
2023-12-22T03:44:08.331Z,7.27
2023-12-22T03:45:08.330Z,7.37
2023-12-22T03:46:08.300Z,7.35
2023-12-22T03:47:08.301Z,7.34
2023-12-22T03:48:08.331Z,7.30
2023-12-22T03:49:08.486Z,7.31
2023-12-22T03:50:08.371Z,7.27
2023-12-22T03:51:08.255Z,7.31
2023-12-22T03:52:08.236Z,7.28
2023-12-22T03:53:08.251Z,7.32
2023-12-22T03:54:08.225Z,7.32
2023-12-22T03:55:08.217Z,7.34
2023-12-22T03:56:08.216Z,7.39
2023-12-22T03:57:08.192Z,7.42
2023-12-22T03:58:08.181Z,7.39
2023-12-22T03:59:08.182Z,7.35
2023-12-22T04:00:08.155Z,7.37
2023-12-22T04:01:08.194Z,7.40
2023-12-22T04:02:08.203Z,7.40
2023-12-22T04:03:08.459Z,7.40
2023-12-22T04:04:08.112Z,7.35
2023-12-22T04:05:08.178Z,7.34
2023-12-22T04:06:08.094Z,7.35
2023-12-22T04:07:08.095Z,7.35
2023-12-22T04:08:08.192Z,7.27
2023-12-22T04:09:08.084Z,7.24
2023-12-22T04:10:08.056Z,7.34
2023-12-22T04:11:08.052Z,7.35
2023-12-22T04:12:08.049Z,7.34
2023-12-22T04:13:08.023Z,7.30
2023-12-22T04:14:08.017Z,7.31
2023-12-22T04:15:08.012Z,7.32
2023-12-22T04:16:07.992Z,7.32
2023-12-22T04:17:08.012Z,7.32
2023-12-22T04:18:08.056Z,7.40
2023-12-22T04:19:11.758Z,7.34
2023-12-22T04:20:08.051Z,7.34
2023-12-22T04:21:07.951Z,7.30
2023-12-22T04:22:08.528Z,7.28
2023-12-22T04:23:07.916Z,7.28
2023-12-22T04:24:07.916Z,7.31
2023-12-22T04:25:08.178Z,7.39
2023-12-22T04:26:07.912Z,7.40
2023-12-22T04:27:07.879Z,7.37
2023-12-22T04:28:07.875Z,7.32
2023-12-22T04:29:08.673Z,7.30
2023-12-22T04:30:08.659Z,7.30
2023-12-22T04:31:07.841Z,7.27
2023-12-22T04:32:07.882Z,7.27
2023-12-22T04:33:07.892Z,7.23
2023-12-22T04:34:07.819Z,7.21
2023-12-22T04:35:07.822Z,7.16
2023-12-22T04:36:07.770Z,7.12
2023-12-22T04:37:07.766Z,7.12
2023-12-22T04:38:07.803Z,7.09
2023-12-22T04:39:07.753Z,7.03
2023-12-22T04:40:07.730Z,7.07
2023-12-22T04:41:07.727Z,7.07
2023-12-22T04:42:07.734Z,6.98
2023-12-22T04:43:07.719Z,6.99
2023-12-22T04:44:07.727Z,6.94
2023-12-22T04:45:07.806Z,6.92
2023-12-22T04:46:07.675Z,6.91
2023-12-22T04:47:07.667Z,6.84
2023-12-22T04:48:07.736Z,6.80
2023-12-22T04:49:08.630Z,6.80
2023-12-22T04:50:07.839Z,6.71
2023-12-22T04:51:07.615Z,6.70
2023-12-22T04:52:07.621Z,6.66
2023-12-22T04:53:07.682Z,6.64
2023-12-22T04:54:07.615Z,6.59
2023-12-22T04:55:07.587Z,6.55
2023-12-22T04:56:07.599Z,6.52
2023-12-22T04:57:07.572Z,6.51
2023-12-22T04:58:07.545Z,6.49
2023-12-22T04:59:07.563Z,6.54
2023-12-22T05:00:07.540Z,6.54
2023-12-22T05:01:07.564Z,6.56
2023-12-22T05:02:08.328Z,6.55
2023-12-22T05:03:07.524Z,6.51
2023-12-22T05:04:08.627Z,6.48
2023-12-22T05:05:07.580Z,6.48
2023-12-22T05:06:07.546Z,6.49
2023-12-22T05:07:07.451Z,6.48
2023-12-22T05:08:07.511Z,6.46
2023-12-22T05:09:07.427Z,6.41
2023-12-22T05:10:07.517Z,6.41
2023-12-22T05:11:07.417Z,6.41
2023-12-22T05:12:07.395Z,6.46
2023-12-22T05:13:07.414Z,6.51
2023-12-22T05:14:07.428Z,6.48
2023-12-22T05:15:07.368Z,6.44
2023-12-22T05:16:07.365Z,6.43
2023-12-22T05:17:07.342Z,6.40
2023-12-22T05:18:07.407Z,6.40
2023-12-22T05:19:07.413Z,6.37
2023-12-22T05:20:07.392Z,6.34
2023-12-22T05:21:07.300Z,6.34
2023-12-22T05:22:07.286Z,6.38
2023-12-22T05:23:07.354Z,6.43
2023-12-22T05:24:07.292Z,6.43
2023-12-22T05:25:07.262Z,6.43
2023-12-22T05:26:07.258Z,6.43
2023-12-22T05:27:07.246Z,6.46
2023-12-22T05:28:07.228Z,6.52
2023-12-22T05:29:08.020Z,6.52
2023-12-22T05:30:07.201Z,6.56
2023-12-22T05:31:07.200Z,6.55
2023-12-22T05:32:07.206Z,6.58
2023-12-22T05:33:07.224Z,6.59
2023-12-22T05:34:07.169Z,6.55
2023-12-22T05:35:07.191Z,6.59
2023-12-22T05:36:07.153Z,6.67
2023-12-22T05:37:07.171Z,6.62
2023-12-22T05:38:07.315Z,6.66
2023-12-22T05:39:07.134Z,6.66
2023-12-22T05:40:07.102Z,6.66
2023-12-22T05:41:07.162Z,6.66
2023-12-22T05:42:07.077Z,6.66
2023-12-22T05:43:07.078Z,6.64
2023-12-22T05:44:07.150Z,6.62
2023-12-22T05:45:07.046Z,6.62
2023-12-22T05:46:07.032Z,6.61
2023-12-22T05:47:07.190Z,6.58
2023-12-22T05:48:07.122Z,6.58
2023-12-22T05:49:07.157Z,6.56
2023-12-22T05:50:07.229Z,6.61
2023-12-22T05:51:06.989Z,6.69
2023-12-22T05:52:06.988Z,6.71
2023-12-22T05:53:07.041Z,6.69
2023-12-22T05:54:06.962Z,6.66
2023-12-22T05:55:06.951Z,6.71
2023-12-22T05:56:06.932Z,6.71
2023-12-22T05:57:07.729Z,6.70
2023-12-22T05:58:06.902Z,6.67
2023-12-22T05:59:06.966Z,6.61
2023-12-22T06:00:06.908Z,6.61
2023-12-22T06:01:06.931Z,6.61
2023-12-22T06:02:06.915Z,6.67
2023-12-22T06:03:06.894Z,6.71
2023-12-22T06:04:06.863Z,6.77
2023-12-22T06:05:06.926Z,6.85
2023-12-22T06:06:06.869Z,6.97
2023-12-22T06:07:06.825Z,7.06
2023-12-22T06:08:06.850Z,7.09
2023-12-22T06:09:06.816Z,7.06
2023-12-22T06:10:07.708Z,7.09
2023-12-22T06:11:06.775Z,7.12
2023-12-22T06:12:07.079Z,7.15
2023-12-22T06:13:06.791Z,7.16
2023-12-22T06:14:06.783Z,7.12
2023-12-22T06:15:06.931Z,7.21
2023-12-22T06:16:06.770Z,7.25
2023-12-22T06:17:06.774Z,7.32
2023-12-22T06:18:06.717Z,7.30
2023-12-22T06:19:06.765Z,7.31
2023-12-22T06:20:06.707Z,7.31
2023-12-22T06:21:06.674Z,7.31
2023-12-22T06:22:06.668Z,7.30
2023-12-22T06:23:06.700Z,7.28
2023-12-22T06:24:06.641Z,7.24
2023-12-22T06:25:06.630Z,7.21
2023-12-22T06:26:06.644Z,7.17
2023-12-22T06:27:06.618Z,7.15
2023-12-22T06:28:06.596Z,7.13
2023-12-22T06:29:07.003Z,7.20
2023-12-22T06:30:06.570Z,7.16
2023-12-22T06:31:06.563Z,7.16
2023-12-22T06:32:06.582Z,7.16
2023-12-22T06:33:06.596Z,7.23
2023-12-22T06:34:06.591Z,7.23
2023-12-22T06:35:06.547Z,7.32
2023-12-22T06:36:06.509Z,7.30
2023-12-22T06:37:06.501Z,7.28
2023-12-22T06:38:06.530Z,7.32
2023-12-22T06:39:06.492Z,7.35
2023-12-22T06:40:06.467Z,7.37
2023-12-22T06:41:06.501Z,7.39
2023-12-22T06:42:07.240Z,7.39
2023-12-22T06:43:06.445Z,7.32
2023-12-22T06:44:06.465Z,7.31
2023-12-22T06:45:06.452Z,7.32
2023-12-22T06:46:06.409Z,7.37
2023-12-22T06:47:07.251Z,7.34
2023-12-22T06:48:06.552Z,7.35
2023-12-22T06:49:07.669Z,7.45
2023-12-22T06:50:06.496Z,7.40
2023-12-22T06:51:06.357Z,7.43
2023-12-22T06:52:06.354Z,7.43
2023-12-22T06:53:13.704Z,7.43
2023-12-22T06:54:07.469Z,7.40
2023-12-22T06:55:06.314Z,7.35
2023-12-22T06:56:06.387Z,7.35
2023-12-22T06:57:07.375Z,7.37
2023-12-22T06:58:06.288Z,7.37
2023-12-22T06:59:06.263Z,7.31
2023-12-22T07:00:06.268Z,7.32
2023-12-22T07:01:06.293Z,7.31
2023-12-22T07:02:14.029Z,7.40
2023-12-22T07:03:07.333Z,7.39
2023-12-22T07:04:06.235Z,7.48
2023-12-22T07:05:06.396Z,7.45
2023-12-22T07:06:06.205Z,7.43
2023-12-22T07:07:06.187Z,7.45
2023-12-22T07:08:06.204Z,7.43
2023-12-22T07:09:06.171Z,7.42
2023-12-22T07:10:06.157Z,7.42
2023-12-22T07:11:06.169Z,7.48
2023-12-22T07:12:06.136Z,7.49
2023-12-22T07:13:06.855Z,7.50
2023-12-22T07:14:06.230Z,7.55
2023-12-22T07:15:06.132Z,7.55
2023-12-22T07:16:06.103Z,7.49
2023-12-22T07:17:06.088Z,7.48
2023-12-22T07:18:06.973Z,7.49
2023-12-22T07:19:06.136Z,7.48
2023-12-22T07:20:06.042Z,7.52
2023-12-22T07:21:06.050Z,7.48
2023-12-22T07:22:06.134Z,7.49
2023-12-22T07:23:06.378Z,7.52
2023-12-22T07:24:06.014Z,7.48
2023-12-22T07:25:05.989Z,7.55
2023-12-22T07:26:06.072Z,7.57
2023-12-22T07:27:06.805Z,7.57
2023-12-22T07:28:05.976Z,7.53
2023-12-22T07:29:07.178Z,7.50
2023-12-22T07:30:07.285Z,7.43
2023-12-22T07:31:05.935Z,7.42
2023-12-22T07:32:05.958Z,7.42
2023-12-22T07:33:05.961Z,7.40
2023-12-22T07:34:06.111Z,7.43
2023-12-22T07:35:05.920Z,7.42
2023-12-22T07:36:06.819Z,7.39
2023-12-22T07:37:07.525Z,7.37
2023-12-22T07:38:05.941Z,7.35
2023-12-22T07:39:05.849Z,7.31
2023-12-22T07:40:05.844Z,7.30
2023-12-22T07:41:05.863Z,7.27
2023-12-22T07:42:05.827Z,7.27
2023-12-22T07:43:05.815Z,7.24
2023-12-22T07:44:07.497Z,7.17
2023-12-22T07:45:05.787Z,7.13
2023-12-22T07:46:05.890Z,7.07
2023-12-22T07:47:05.794Z,7.06
2023-12-22T07:48:05.851Z,7.03
2023-12-22T07:49:05.786Z,6.98
2023-12-22T07:50:05.856Z,6.98
2023-12-22T07:51:05.728Z,6.95
2023-12-22T07:52:05.722Z,6.92
2023-12-22T07:53:07.780Z,6.87
2023-12-22T07:54:06.357Z,6.84
2023-12-22T07:55:05.734Z,6.87
2023-12-22T07:56:06.765Z,6.81
2023-12-22T07:57:05.685Z,6.84
2023-12-22T07:58:05.666Z,6.84
2023-12-22T07:59:18.234Z,6.89
2023-12-22T08:00:06.638Z,6.88
2023-12-22T08:01:05.652Z,6.92
2023-12-22T08:02:05.689Z,6.97
2023-12-22T08:03:05.595Z,6.95
2023-12-22T08:04:05.583Z,6.94
2023-12-22T08:05:05.612Z,6.92
2023-12-22T08:06:06.123Z,6.92
2023-12-22T08:07:05.612Z,6.92
2023-12-22T08:08:05.668Z,6.92
2023-12-22T08:09:05.545Z,6.91
2023-12-22T08:10:05.521Z,6.98
2023-12-22T08:11:05.558Z,7.05
2023-12-22T08:12:05.826Z,7.07
2023-12-22T08:13:05.505Z,7.07
2023-12-22T08:14:05.485Z,7.12
2023-12-22T08:15:05.493Z,7.12
2023-12-22T08:16:05.605Z,7.15
2023-12-22T08:17:05.530Z,7.23
2023-12-22T08:18:05.500Z,7.25
2023-12-22T08:19:05.476Z,7.24
2023-12-22T08:20:11.710Z,7.17
2023-12-22T08:21:14.596Z,7.21
2023-12-22T08:22:08.514Z,7.25
2023-12-22T08:23:08.346Z,7.25
2023-12-22T08:24:06.454Z,7.28
2023-12-22T08:25:05.449Z,7.31
2023-12-22T08:26:05.436Z,7.31
2023-12-22T08:27:05.338Z,7.28
2023-12-22T08:28:05.380Z,7.30
2023-12-22T08:29:05.313Z,7.34
2023-12-22T08:30:05.311Z,7.39
2023-12-22T08:31:05.296Z,7.42
2023-12-22T08:32:05.439Z,7.43
2023-12-22T08:33:05.373Z,7.39
2023-12-22T08:34:05.281Z,7.37
2023-12-22T08:35:08.060Z,7.39
2023-12-22T08:36:05.276Z,7.31
2023-12-22T08:37:06.053Z,7.28
2023-12-22T08:38:05.703Z,7.27
2023-12-22T08:39:05.329Z,7.25
2023-12-22T08:40:05.248Z,7.25
2023-12-22T08:41:06.391Z,7.23
2023-12-22T08:42:05.186Z,7.20
2023-12-22T08:43:05.182Z,7.16
2023-12-22T08:44:05.276Z,7.16
2023-12-22T08:45:05.156Z,7.17
2023-12-22T08:46:05.144Z,7.15
2023-12-22T08:47:05.165Z,7.16
2023-12-22T08:48:05.264Z,7.16
2023-12-22T08:49:05.240Z,7.23
2023-12-22T08:50:05.374Z,7.24
2023-12-22T08:51:05.089Z,7.30
2023-12-22T08:52:05.136Z,7.34
2023-12-22T08:53:05.093Z,7.35
2023-12-22T08:54:05.088Z,7.35
2023-12-22T08:55:05.057Z,7.32
2023-12-22T08:56:05.110Z,7.27
2023-12-22T08:57:05.027Z,7.27
2023-12-22T08:58:05.338Z,7.28
2023-12-22T08:59:05.179Z,7.24
2023-12-22T09:00:05.011Z,7.24
2023-12-22T09:01:04.995Z,7.16
2023-12-22T09:02:05.038Z,7.13
2023-12-22T09:03:04.970Z,7.10
2023-12-22T09:04:06.312Z,7.07
2023-12-22T09:05:05.005Z,7.06
2023-12-22T09:06:04.941Z,6.99
2023-12-22T09:07:04.934Z,6.99
2023-12-22T09:08:04.945Z,6.95
2023-12-22T09:09:05.105Z,6.92
2023-12-22T09:10:06.772Z,6.88
2023-12-22T09:11:04.915Z,6.85
2023-12-22T09:12:04.875Z,6.81
2023-12-22T09:13:04.860Z,6.79
2023-12-22T09:14:04.950Z,6.79
2023-12-22T09:15:04.851Z,6.77
2023-12-22T09:16:04.827Z,6.74
2023-12-22T09:17:04.918Z,6.71
2023-12-22T09:18:04.842Z,6.69
2023-12-22T09:19:04.836Z,6.70
2023-12-22T09:20:04.873Z,6.74
2023-12-22T09:21:04.784Z,6.73
2023-12-22T09:22:04.779Z,6.71
2023-12-22T09:23:04.896Z,6.67
2023-12-22T09:24:04.746Z,6.67
2023-12-22T09:25:04.734Z,6.61
2023-12-22T09:26:04.773Z,6.59
2023-12-22T09:27:05.417Z,6.58
2023-12-22T09:28:04.708Z,6.56
2023-12-22T09:29:04.743Z,6.61
2023-12-22T09:30:04.715Z,6.61
2023-12-22T09:31:04.664Z,6.64
2023-12-22T09:32:04.690Z,6.66
2023-12-22T09:33:04.752Z,6.69
2023-12-22T09:34:05.025Z,6.71
2023-12-22T09:35:04.746Z,6.71
2023-12-22T09:36:04.654Z,6.73
2023-12-22T09:37:04.611Z,6.71
2023-12-22T09:38:04.652Z,6.76
2023-12-22T09:39:04.593Z,6.87
2023-12-22T09:40:04.587Z,6.85
2023-12-22T09:41:04.708Z,6.87
2023-12-22T09:42:04.571Z,6.87
2023-12-22T09:43:04.578Z,6.95
2023-12-22T09:44:04.577Z,6.94
2023-12-22T09:45:04.557Z,6.97
2023-12-22T09:46:04.519Z,6.95
2023-12-22T09:47:04.694Z,6.94
2023-12-22T09:48:04.584Z,6.98
2023-12-22T09:49:04.529Z,7.05
2023-12-22T09:50:04.503Z,7.09
2023-12-22T09:51:04.489Z,7.06
2023-12-22T09:52:04.475Z,7.09
2023-12-22T09:53:06.172Z,7.06
2023-12-22T09:54:05.714Z,7.05
2023-12-22T09:55:04.418Z,7.02
2023-12-22T09:56:04.995Z,7.06
2023-12-22T09:57:14.774Z,7.06
2023-12-22T09:58:05.407Z,7.07
2023-12-22T09:59:04.558Z,7.09
2023-12-22T10:00:04.375Z,7.09
2023-12-22T10:01:04.377Z,7.09
2023-12-22T10:02:04.387Z,7.05
2023-12-22T10:03:04.339Z,7.05
2023-12-22T10:04:04.354Z,7.05
2023-12-22T10:05:05.203Z,7.07
2023-12-22T10:06:04.347Z,7.06
2023-12-22T10:07:05.110Z,7.10
2023-12-22T10:08:04.361Z,7.07
2023-12-22T10:09:04.275Z,7.12
2023-12-22T10:10:04.267Z,7.10
2023-12-22T10:11:04.363Z,7.12
2023-12-22T10:12:04.368Z,7.12
2023-12-22T10:13:04.235Z,7.13
2023-12-22T10:14:04.334Z,7.10
2023-12-22T10:15:04.213Z,7.12
2023-12-22T10:16:04.195Z,7.15
2023-12-22T10:17:04.269Z,7.13
2023-12-22T10:18:04.250Z,7.13
2023-12-22T10:19:04.234Z,7.10
2023-12-22T10:20:04.179Z,7.10
2023-12-22T10:21:04.162Z,7.15
2023-12-22T10:22:04.136Z,7.13
2023-12-22T10:23:04.246Z,7.17
2023-12-22T10:24:04.123Z,7.15
2023-12-22T10:25:04.260Z,7.13
2023-12-22T10:26:04.209Z,7.13
2023-12-22T10:27:04.129Z,7.16
2023-12-22T10:28:04.084Z,7.20
2023-12-22T10:29:04.163Z,7.23
2023-12-22T10:30:04.059Z,7.23
2023-12-22T10:31:04.036Z,7.27
2023-12-22T10:32:06.125Z,7.27
2023-12-22T10:33:04.127Z,7.31
2023-12-22T10:34:04.041Z,7.30
2023-12-22T10:35:04.028Z,7.25
2023-12-22T10:36:03.989Z,7.31
2023-12-22T10:37:03.978Z,7.28
2023-12-22T10:38:04.845Z,7.27
2023-12-22T10:39:03.953Z,7.31
2023-12-22T10:40:03.987Z,7.34
2023-12-22T10:41:04.059Z,7.35
2023-12-22T10:42:03.931Z,7.42
2023-12-22T10:43:03.935Z,7.43
2023-12-22T10:44:03.987Z,7.42
2023-12-22T10:45:03.960Z,7.39
2023-12-22T10:46:03.914Z,7.39
2023-12-22T10:47:04.023Z,7.37
2023-12-22T10:48:04.758Z,7.39
2023-12-22T10:49:04.019Z,7.39
2023-12-22T10:50:03.975Z,7.39
2023-12-22T10:51:03.831Z,7.40
2023-12-22T10:52:03.921Z,7.43
2023-12-22T10:53:04.031Z,7.45
2023-12-22T10:54:03.809Z,7.45
2023-12-22T10:55:03.794Z,7.43
2023-12-22T10:56:03.919Z,7.45
2023-12-22T10:57:03.774Z,7.43
2023-12-22T10:58:03.769Z,7.39
2023-12-22T10:59:03.844Z,7.40
2023-12-22T11:00:03.741Z,7.40
2023-12-22T11:01:03.741Z,7.37
2023-12-22T11:02:03.839Z,7.37
2023-12-22T11:03:03.715Z,7.40
2023-12-22T11:04:03.770Z,7.37
2023-12-22T11:05:03.869Z,7.35
2023-12-22T11:06:03.731Z,7.34
2023-12-22T11:07:03.668Z,7.35
2023-12-22T11:08:04.251Z,7.39
2023-12-22T11:09:03.639Z,7.37
2023-12-22T11:10:03.639Z,7.39
2023-12-22T11:11:03.744Z,7.37
2023-12-22T11:12:03.614Z,7.35
2023-12-22T11:13:03.617Z,7.32
2023-12-22T11:14:03.730Z,7.32
2023-12-22T11:15:03.597Z,7.30
2023-12-22T11:16:04.366Z,7.32
2023-12-22T11:17:03.595Z,7.28
2023-12-22T11:18:03.662Z,7.25
2023-12-22T11:19:03.592Z,7.24
2023-12-22T11:20:03.552Z,7.27
2023-12-22T11:21:03.531Z,7.24
2023-12-22T11:22:03.507Z,7.24
2023-12-22T11:23:03.753Z,7.25
2023-12-22T11:24:03.496Z,7.25
2023-12-22T11:25:04.274Z,7.24
2023-12-22T11:26:03.478Z,7.21
2023-12-22T11:27:03.473Z,7.23
2023-12-22T11:28:03.445Z,7.21
2023-12-22T11:29:03.577Z,7.27
2023-12-22T11:30:03.551Z,7.25
2023-12-22T11:31:03.424Z,7.25
2023-12-22T11:32:03.479Z,7.21
2023-12-22T11:33:03.490Z,7.23
2023-12-22T11:34:09.854Z,7.23
2023-12-22T11:35:04.534Z,7.23
2023-12-22T11:36:03.370Z,7.16
2023-12-22T11:37:03.359Z,7.17
2023-12-22T11:38:03.428Z,7.16
2023-12-22T11:39:03.564Z,7.13
2023-12-22T11:40:03.314Z,7.15
2023-12-22T11:41:03.405Z,7.15
2023-12-22T11:42:03.302Z,7.09
2023-12-22T11:43:03.369Z,7.10
2023-12-22T11:44:03.374Z,7.09
2023-12-22T11:45:03.292Z,7.09
2023-12-22T11:46:03.256Z,7.09
2023-12-22T11:47:03.268Z,7.09
2023-12-22T11:48:03.270Z,7.10
2023-12-22T11:49:03.296Z,7.09
2023-12-22T11:50:03.289Z,7.07
2023-12-22T11:51:03.209Z,7.06
2023-12-22T11:52:03.198Z,7.07
2023-12-22T11:53:03.300Z,7.07
2023-12-22T11:54:03.181Z,7.05
2023-12-22T11:55:03.157Z,7.09
2023-12-22T11:56:03.161Z,7.07
2023-12-22T11:57:03.126Z,7.05
2023-12-22T11:58:03.126Z,7.05
2023-12-22T11:59:03.303Z,7.07
2023-12-22T12:00:03.092Z,7.10
2023-12-22T12:01:03.143Z,7.12
2023-12-22T12:02:04.181Z,7.10
2023-12-22T12:03:03.086Z,7.10
2023-12-22T12:04:03.311Z,7.10
2023-12-22T12:05:03.181Z,7.10
2023-12-22T12:06:03.123Z,7.07
2023-12-22T12:07:03.036Z,7.07
2023-12-22T12:08:04.441Z,7.07
2023-12-22T12:09:03.061Z,7.07
2023-12-22T12:10:03.060Z,7.05
2023-12-22T12:11:03.091Z,7.06
2023-12-22T12:12:02.999Z,7.07
2023-12-22T12:13:02.980Z,7.05
2023-12-22T12:14:04.370Z,7.05
2023-12-22T12:15:02.954Z,7.03
2023-12-22T12:16:03.012Z,7.02
2023-12-22T12:17:02.958Z,7.06
2023-12-22T12:18:03.114Z,7.02
2023-12-22T12:19:02.924Z,7.02
2023-12-22T12:20:03.086Z,7.03
2023-12-22T12:21:02.884Z,7.05
2023-12-22T12:22:02.866Z,7.07
2023-12-22T12:23:02.987Z,7.09
2023-12-22T12:24:02.859Z,7.07
2023-12-22T12:25:03.643Z,7.07
2023-12-22T12:26:02.883Z,7.09
2023-12-22T12:27:02.814Z,7.10
2023-12-22T12:28:02.803Z,7.09
2023-12-22T12:29:02.905Z,7.09
2023-12-22T12:30:05.178Z,7.09
2023-12-22T12:31:02.778Z,7.12
2023-12-22T12:32:02.843Z,7.12
2023-12-22T12:33:03.100Z,7.10
2023-12-22T12:34:02.822Z,7.10
2023-12-22T12:35:02.930Z,7.09
2023-12-22T12:36:02.961Z,7.07
2023-12-22T12:37:03.186Z,7.09
2023-12-22T12:38:02.750Z,7.10
2023-12-22T12:39:02.710Z,7.09
2023-12-22T12:40:02.736Z,7.09
2023-12-22T12:41:02.749Z,7.12
2023-12-22T12:42:02.678Z,7.15
2023-12-22T12:43:03.450Z,7.10
2023-12-22T12:44:02.682Z,7.10
2023-12-22T12:45:02.761Z,7.12
2023-12-22T12:46:03.189Z,7.15
2023-12-22T12:47:02.730Z,7.13
2023-12-22T12:48:04.156Z,7.15
2023-12-22T12:49:02.665Z,7.13
2023-12-22T12:50:02.785Z,7.13
2023-12-22T12:51:02.564Z,7.15
2023-12-22T12:52:02.593Z,7.20
2023-12-22T12:53:02.963Z,7.23
2023-12-22T12:54:03.711Z,7.21
2023-12-22T12:55:02.536Z,7.21
2023-12-22T12:56:02.621Z,7.21
2023-12-22T12:57:02.689Z,7.27
2023-12-22T12:58:02.513Z,7.25
2023-12-22T12:59:02.513Z,7.24
2023-12-22T13:00:02.483Z,7.24
2023-12-22T13:01:02.547Z,7.23
2023-12-22T13:02:03.305Z,7.27
2023-12-22T13:03:02.519Z,7.28
2023-12-22T13:04:02.469Z,7.25
2023-12-22T13:05:02.561Z,7.23
2023-12-22T13:06:02.426Z,7.23
2023-12-22T13:07:02.440Z,7.24
2023-12-22T13:08:02.470Z,7.24
2023-12-22T13:09:02.418Z,7.25
2023-12-22T13:10:02.363Z,7.21
2023-12-22T13:11:02.430Z,7.25
2023-12-22T13:12:02.377Z,7.28
2023-12-22T13:13:02.340Z,7.30
2023-12-22T13:14:02.397Z,7.24
2023-12-22T13:15:03.129Z,7.23
2023-12-22T13:16:02.289Z,7.27
2023-12-22T13:17:02.354Z,7.25
2023-12-22T13:18:02.316Z,7.27